createdAt,value
2019-01-26T00:00:32.821Z,55.03
2019-01-26T00:03:20.663Z,48.90
2019-01-26T00:05:48.236Z,50.53
2019-01-26T00:08:20.599Z,52.37
2019-01-26T00:10:53.821Z,52.17
2019-01-26T00:13:31.793Z,52.53
2019-01-26T00:16:20.995Z,48.53
2019-01-26T00:18:47.299Z,49.55
2019-01-26T00:21:20.700Z,47.93
2019-01-26T00:23:50.683Z,53.03
2019-01-26T00:26:20.624Z,43.97
2019-01-26T00:28:54.228Z,52.00
2019-01-26T00:31:27.119Z,43.13
2019-01-26T00:34:12.976Z,49.77
2019-01-26T00:36:52.139Z,44.42
2019-01-26T00:39:24.740Z,43.33
2019-01-26T00:42:05.164Z,47.30
2019-01-26T00:44:43.875Z,45.07
2019-01-26T00:47:18.415Z,56.23
2019-01-26T00:49:52.778Z,38.98
2019-01-26T00:52:29.215Z,42.80
2019-01-26T00:55:15.243Z,44.20
2019-01-26T00:57:46.499Z,41.18
2019-01-26T01:00:22.815Z,49.23
2019-01-26T01:02:52.225Z,42.03
2019-01-26T01:05:25.126Z,49.13
2019-01-26T01:08:02.164Z,48.95
2019-01-26T01:10:43.332Z,52.45
2019-01-26T01:13:17.074Z,44.60
2019-01-26T01:15:58.439Z,52.90
2019-01-26T01:18:36.128Z,55.60
2019-01-26T01:21:08.627Z,46.03
2019-01-26T01:23:40.767Z,43.80
2019-01-26T01:26:14.847Z,42.83
2019-01-26T01:28:53.650Z,49.40
2019-01-26T01:31:25.984Z,45.23
2019-01-26T01:33:57.455Z,46.40
2019-01-26T01:36:32.280Z,45.70
2019-01-26T01:39:13.249Z,49.77
2019-01-26T01:41:48.294Z,43.63
2019-01-26T01:44:23.722Z,47.43
2019-01-26T01:47:00.865Z,38.90
2019-01-26T01:49:39.543Z,44.03
2019-01-26T01:52:15.364Z,37.30
2019-01-26T01:54:48.926Z,39.63
2019-01-26T01:57:24.462Z,49.67
2019-01-26T01:59:59.699Z,54.90
2019-01-26T02:02:34.931Z,46.90
2019-01-26T02:05:12.211Z,37.90
2019-01-26T02:07:47.722Z,37.93
2019-01-26T02:10:22.022Z,51.27
2019-01-26T02:12:55.171Z,55.50
2019-01-26T02:15:28.939Z,39.92
2019-01-26T02:18:00.629Z,40.27
2019-01-26T02:20:30.219Z,43.67
2019-01-26T02:23:06.513Z,40.70
2019-01-26T02:25:37.656Z,46.33
2019-01-26T02:28:16.566Z,44.93
2019-01-26T02:30:52.698Z,40.40
2019-01-26T02:33:28.201Z,47.78
2019-01-26T02:36:05.251Z,39.20
2019-01-26T02:38:34.415Z,42.35
2019-01-26T02:41:12.848Z,45.87
2019-01-26T02:43:50.694Z,41.43
2019-01-26T02:46:23.318Z,42.67
2019-01-26T02:48:59.384Z,41.83
2019-01-26T02:51:33.851Z,43.67
2019-01-26T02:54:07.142Z,40.70
2019-01-26T02:56:47.686Z,39.00
2019-01-26T02:59:19.383Z,36.60
2019-01-26T03:01:55.442Z,36.43
2019-01-26T03:04:29.983Z,38.70
2019-01-26T03:07:03.438Z,36.83
2019-01-26T03:09:35.561Z,38.60
2019-01-26T03:12:08.098Z,42.07
2019-01-26T03:14:47.072Z,37.90
2019-01-26T03:17:20.174Z,39.77
2019-01-26T03:19:52.747Z,30.83
2019-01-26T03:22:24.100Z,43.93
2019-01-26T03:25:02.150Z,39.67
2019-01-26T03:27:35.883Z,34.43
2019-01-26T03:30:13.686Z,31.95
2019-01-26T03:32:48.249Z,40.92
2019-01-26T03:35:19.306Z,36.17
2019-01-26T03:37:58.934Z,34.43
2019-01-26T03:40:31.800Z,33.83
2019-01-26T03:43:07.350Z,34.95
2019-01-26T03:45:42.043Z,29.73
2019-01-26T03:48:34.375Z,36.48
2019-01-26T03:51:08.746Z,34.87
2019-01-26T03:53:54.858Z,40.98
2019-01-26T03:56:36.739Z,40.30
2019-01-26T03:59:12.781Z,30.43
2019-01-26T04:01:46.884Z,33.53
2019-01-26T04:04:18.836Z,32.30
2019-01-26T04:06:57.732Z,30.33
2019-01-26T04:09:31.787Z,30.77
2019-01-26T04:12:04.903Z,32.10
2019-01-26T04:14:34.143Z,35.63
2019-01-26T04:17:06.747Z,36.10
2019-01-26T04:19:39.051Z,31.80
2019-01-26T04:22:15.870Z,34.85
2019-01-26T04:24:56.714Z,33.85
2019-01-26T04:27:29.589Z,34.87
2019-01-26T04:30:02.621Z,31.37
2019-01-26T04:32:36.664Z,29.60
2019-01-26T04:35:10.808Z,27.33
2019-01-26T04:37:41.848Z,29.87
2019-01-26T04:40:14.748Z,32.83
2019-01-26T04:42:48.950Z,33.03
2019-01-26T04:45:23.766Z,33.90
2019-01-26T04:47:57.259Z,30.52
2019-01-26T04:50:34.112Z,31.53
2019-01-26T04:53:07.034Z,34.00
2019-01-26T04:55:43.774Z,26.07
2019-01-26T04:58:15.562Z,32.13
2019-01-26T05:00:53.400Z,27.50
2019-01-26T05:03:22.852Z,29.98
2019-01-26T05:05:52.531Z,29.57
2019-01-26T05:08:22.109Z,28.90
2019-01-26T05:10:51.482Z,29.07
2019-01-26T05:13:20.707Z,27.58
2019-01-26T05:15:50.147Z,27.55
2019-01-26T05:18:19.468Z,24.85
2019-01-26T05:20:48.927Z,25.23
2019-01-26T05:23:18.379Z,22.77
2019-01-26T05:25:47.975Z,26.13
2019-01-26T05:28:17.535Z,21.53
2019-01-26T05:30:46.793Z,23.00
2019-01-26T05:33:16.254Z,24.85
2019-01-26T05:35:45.434Z,25.53
2019-01-26T05:38:14.581Z,23.20
2019-01-26T05:40:43.999Z,25.10
2019-01-26T05:43:13.191Z,28.27
2019-01-26T05:45:42.409Z,21.70
2019-01-26T05:48:11.908Z,21.67
2019-01-26T05:50:41.486Z,20.70
2019-01-26T05:53:12.116Z,24.20
2019-01-26T05:55:42.099Z,21.62
2019-01-26T05:58:11.941Z,19.00
2019-01-26T06:00:41.124Z,19.62
2019-01-26T06:03:10.725Z,18.30
2019-01-26T06:05:41.737Z,20.32
2019-01-26T06:08:11.247Z,22.90
2019-01-26T06:10:40.607Z,24.30
2019-01-26T06:13:09.877Z,23.93
2019-01-26T06:15:40.464Z,23.07
2019-01-26T06:18:10.279Z,21.27
2019-01-26T06:20:40.874Z,22.52
2019-01-26T06:23:11.287Z,25.30
2019-01-26T06:25:40.559Z,19.80
2019-01-26T06:28:09.932Z,20.67
2019-01-26T06:30:39.075Z,25.10
2019-01-26T06:33:08.331Z,22.85
2019-01-26T06:35:37.511Z,23.03
2019-01-26T06:38:06.760Z,23.27
2019-01-26T06:40:36.097Z,26.20
2019-01-26T06:43:05.775Z,25.13
2019-01-26T06:45:34.952Z,23.20
2019-01-26T06:48:04.690Z,26.33
2019-01-26T06:50:34.382Z,23.97
2019-01-26T06:53:03.620Z,24.60
2019-01-26T06:55:33.029Z,27.43
2019-01-26T06:58:02.306Z,25.17
2019-01-26T07:00:32.021Z,27.63
2019-01-26T07:03:01.791Z,23.87
2019-01-26T07:05:51.469Z,23.67
2019-01-26T07:08:24.267Z,25.77
2019-01-26T07:10:55.684Z,27.40
2019-01-26T07:13:24.927Z,26.50
2019-01-26T07:15:56.280Z,27.30
2019-01-26T07:18:28.763Z,27.10
2019-01-26T07:20:58.397Z,28.80
2019-01-26T07:23:27.928Z,26.63
2019-01-26T07:25:57.407Z,25.70
2019-01-26T07:28:28.116Z,27.07
2019-01-26T07:30:57.764Z,25.97
2019-01-26T07:33:26.916Z,24.60
2019-01-26T07:35:56.179Z,28.35
2019-01-26T07:38:25.319Z,27.85
2019-01-26T07:40:54.513Z,26.03
2019-01-26T07:43:23.740Z,25.23
2019-01-26T07:45:52.993Z,23.57
2019-01-26T07:48:22.140Z,24.13
2019-01-26T07:50:51.963Z,30.37
2019-01-26T07:53:21.921Z,34.60
2019-01-26T07:55:51.779Z,26.35
2019-01-26T07:58:21.016Z,22.95
2019-01-26T08:00:50.636Z,26.62
2019-01-26T08:03:19.795Z,25.97
2019-01-26T08:05:49.611Z,24.93
2019-01-26T08:08:19.208Z,26.47
2019-01-26T08:10:48.439Z,28.23
2019-01-26T08:13:17.670Z,27.47
2019-01-26T08:15:47.025Z,26.87
2019-01-26T08:18:16.228Z,26.33
2019-01-26T08:20:45.622Z,22.60
2019-01-26T08:23:15.079Z,27.50
2019-01-26T08:25:44.404Z,25.02
2019-01-26T08:28:13.678Z,26.47
2019-01-26T08:30:43.100Z,35.93
2019-01-26T08:33:12.415Z,29.87
2019-01-26T08:35:41.724Z,35.70
2019-01-26T08:38:10.946Z,26.50
2019-01-26T08:40:40.983Z,27.67
2019-01-26T08:43:10.619Z,27.93
2019-01-26T08:45:40.362Z,28.90
2019-01-26T08:48:10.595Z,26.33
2019-01-26T08:50:39.926Z,25.90
2019-01-26T08:53:09.507Z,26.12
2019-01-26T08:55:38.786Z,28.47
2019-01-26T08:58:08.457Z,28.10
2019-01-26T09:00:37.589Z,21.00
2019-01-26T09:03:17.596Z,22.52
2019-01-26T09:06:12.347Z,22.43
2019-01-26T09:08:42.303Z,22.27
2019-01-26T09:11:11.650Z,20.80
2019-01-26T09:13:41.000Z,22.20
2019-01-26T09:16:10.478Z,19.90
2019-01-26T09:18:48.603Z,23.23
2019-01-26T09:21:18.460Z,27.80
2019-01-26T09:23:47.742Z,19.53
2019-01-26T09:26:19.602Z,25.57
2019-01-26T09:28:48.732Z,21.10
2019-01-26T09:31:18.278Z,24.17
2019-01-26T09:33:47.700Z,27.10
2019-01-26T09:36:18.365Z,25.37
2019-01-26T09:38:47.530Z,30.23
2019-01-26T09:41:17.485Z,20.27
2019-01-26T09:43:48.255Z,22.93
2019-01-26T09:46:17.433Z,22.40
2019-01-26T09:48:46.783Z,22.63
2019-01-26T09:51:16.892Z,24.70
2019-01-26T09:53:47.504Z,28.50
2019-01-26T09:56:16.916Z,24.00
2019-01-26T09:58:46.965Z,28.92
2019-01-26T10:01:17.796Z,20.12
2019-01-26T10:03:47.059Z,24.83
2019-01-26T10:06:20.558Z,25.08
2019-01-26T10:08:50.223Z,24.93
2019-01-26T10:11:19.711Z,26.12
2019-01-26T10:13:49.262Z,19.30
2019-01-26T10:16:20.141Z,20.23
2019-01-26T10:18:53.557Z,20.70
2019-01-26T10:21:21.168Z,17.00
2019-01-26T10:23:50.744Z,21.40
2019-01-26T10:26:19.979Z,20.77
2019-01-26T10:28:49.681Z,22.10
2019-01-26T10:31:19.318Z,20.88
2019-01-26T10:33:49.325Z,25.33
2019-01-26T10:36:45.961Z,18.05
2019-01-26T10:39:21.723Z,18.60
2019-01-26T10:42:29.845Z,18.03
2019-01-26T10:45:02.358Z,18.07
2019-01-26T10:47:35.318Z,20.60
2019-01-26T10:50:06.480Z,17.77
2019-01-26T10:52:36.023Z,16.53
2019-01-26T10:55:06.969Z,19.80
2019-01-26T10:57:38.473Z,19.87
2019-01-26T11:00:11.007Z,19.10
2019-01-26T11:02:40.540Z,19.30
2019-01-26T11:05:10.322Z,17.60
2019-01-26T11:07:39.566Z,15.73
2019-01-26T11:10:09.940Z,19.13
2019-01-26T11:12:40.008Z,13.83
2019-01-26T11:15:10.369Z,16.65
2019-01-26T11:17:39.595Z,15.10
2019-01-26T11:20:18.552Z,15.30
2019-01-26T11:22:48.099Z,20.10
2019-01-26T11:25:18.765Z,15.27
2019-01-26T11:27:49.908Z,15.23
2019-01-26T11:30:20.078Z,18.97
2019-01-26T11:32:51.787Z,14.90
2019-01-26T11:35:21.879Z,16.73
2019-01-26T11:37:54.464Z,17.42
2019-01-26T11:40:24.308Z,14.68
2019-01-26T11:42:53.571Z,14.87
2019-01-26T11:45:41.794Z,14.20
2019-01-26T11:48:23.496Z,13.70
2019-01-26T11:51:03.578Z,18.20
2019-01-26T11:53:32.744Z,13.67
2019-01-26T11:56:30.394Z,18.77
2019-01-26T11:59:00.039Z,18.40
2019-01-26T12:01:57.055Z,15.30
2019-01-26T12:04:39.315Z,15.78
2019-01-26T12:07:17.804Z,14.00
2019-01-26T12:09:49.655Z,14.78
2019-01-26T12:12:21.426Z,12.57
2019-01-26T12:14:51.009Z,12.77
2019-01-26T12:17:26.630Z,14.47
2019-01-26T12:19:58.783Z,14.23
2019-01-26T12:22:28.242Z,14.25
2019-01-26T12:24:58.540Z,12.97
2019-01-26T12:27:28.136Z,12.53
2019-01-26T12:51:07.064Z,16.32
2019-01-26T12:53:38.096Z,9.33
2019-01-26T12:56:09.133Z,12.33
2019-01-26T12:58:39.691Z,12.17
2019-01-26T13:01:10.460Z,10.27
2019-01-26T13:03:41.818Z,12.33
2019-01-26T13:11:40.343Z,10.98
2019-01-26T13:14:14.090Z,10.33
2019-01-26T13:16:46.473Z,12.13
2019-01-26T13:19:17.151Z,11.25
2019-01-26T13:21:48.017Z,10.77
2019-01-26T13:24:19.998Z,12.10
2019-01-26T13:26:52.977Z,8.63
2019-01-26T13:29:32.791Z,7.60
2019-01-26T13:32:14.351Z,12.43
2019-01-26T13:34:46.628Z,11.12
2019-01-26T13:37:28.551Z,8.90
2019-01-26T13:40:10.374Z,11.20
2019-01-26T13:42:41.402Z,12.90
2019-01-26T13:45:13.253Z,10.70
2019-01-26T13:47:43.355Z,11.87
2019-01-26T13:50:13.082Z,10.17
2019-01-26T13:52:43.628Z,13.25
2019-01-26T13:55:20.098Z,10.30
2019-01-26T13:57:55.693Z,9.00
2019-01-26T14:00:36.229Z,10.97
2019-01-26T14:03:13.860Z,10.90
2019-01-26T14:05:46.828Z,9.87
2019-01-26T14:08:17.504Z,11.17
2019-01-26T14:10:54.327Z,9.58
2019-01-26T14:13:25.385Z,11.50
2019-01-26T14:15:54.870Z,10.47
2019-01-26T14:18:28.202Z,11.17
2019-01-26T14:21:08.582Z,10.87
2019-01-26T14:23:44.571Z,13.70
2019-01-26T14:26:22.215Z,10.63
2019-01-26T14:28:52.842Z,10.63
2019-01-26T14:31:25.766Z,11.93
2019-01-26T14:34:00.038Z,12.73
2019-01-26T14:36:36.459Z,11.27
2019-01-26T14:39:19.145Z,10.73
2019-01-26T14:41:59.168Z,9.83
2019-01-26T14:44:39.698Z,10.87
2019-01-26T14:47:16.131Z,10.63
2019-01-26T14:49:49.638Z,13.50
2019-01-26T14:52:30.355Z,13.13
2019-01-26T14:55:10.324Z,11.77
2019-01-26T14:57:44.593Z,16.80
2019-01-26T15:00:29.701Z,12.63
2019-01-26T15:02:59.209Z,13.73
2019-01-26T15:05:28.765Z,16.40
2019-01-26T15:07:58.565Z,12.43
2019-01-26T15:10:30.714Z,13.00
2019-01-26T15:13:04.087Z,12.70
2019-01-26T15:15:39.690Z,14.23
2019-01-26T15:18:28.392Z,15.17
2019-01-26T15:21:06.185Z,15.27
2019-01-26T15:23:41.045Z,13.80
2019-01-26T15:26:16.076Z,12.35
2019-01-26T15:28:45.309Z,12.53
2019-01-26T15:31:26.638Z,13.50
2019-01-26T15:34:03.239Z,14.00
2019-01-26T15:36:37.003Z,19.07
2019-01-26T15:39:21.330Z,13.97
2019-01-26T15:41:53.484Z,13.80
2019-01-26T15:44:22.944Z,16.47
2019-01-26T15:46:54.833Z,13.20
2019-01-26T15:49:34.556Z,18.10
2019-01-26T15:52:14.526Z,12.60
2019-01-26T15:54:48.460Z,17.40
2019-01-26T15:57:29.846Z,14.43
2019-01-26T16:00:05.367Z,14.80
2019-01-26T16:02:43.805Z,19.27
2019-01-26T16:05:13.296Z,14.53
2019-01-26T16:07:42.801Z,14.93
2019-01-26T16:10:13.615Z,16.13
2019-01-26T16:12:42.934Z,15.13
2019-01-26T16:18:50.987Z,14.40
2019-01-26T16:28:09.378Z,12.87
2019-01-26T16:30:38.913Z,19.50
2019-01-26T16:33:09.358Z,16.20
2019-01-26T16:35:39.088Z,14.47
2019-01-26T16:38:16.695Z,17.50
2019-01-26T16:40:45.981Z,15.93
2019-01-26T16:43:15.192Z,18.10
2019-01-26T16:45:44.806Z,15.57
2019-01-26T16:48:16.110Z,19.47
2019-01-26T16:50:45.423Z,17.57
2019-01-26T16:53:14.700Z,21.60
2019-01-26T16:55:44.230Z,15.57
2019-01-26T16:58:14.541Z,19.20
2019-01-26T17:00:57.026Z,19.98
2019-01-26T17:03:26.641Z,21.97
2019-01-26T17:05:56.130Z,18.57
2019-01-26T17:08:25.373Z,19.20
2019-01-26T17:10:54.795Z,16.90
2019-01-26T17:13:24.490Z,19.50
2019-01-26T17:15:58.189Z,15.63
2019-01-26T17:18:28.720Z,20.00
2019-01-26T17:20:58.074Z,24.60
2019-01-26T17:23:27.794Z,22.45
2019-01-26T17:25:57.470Z,18.67
2019-01-26T17:28:26.859Z,21.57
2019-01-26T17:30:57.036Z,18.90
2019-01-26T17:33:26.286Z,21.07
2019-01-26T17:35:55.665Z,22.70
2019-01-26T17:38:34.989Z,27.90
2019-01-26T17:41:05.242Z,28.85
2019-01-26T17:43:35.963Z,27.60
2019-01-26T17:46:25.421Z,32.33
2019-01-26T17:48:56.769Z,27.70
2019-01-26T17:51:35.582Z,27.30
2019-01-26T17:54:15.711Z,31.27
2019-01-26T17:56:46.614Z,26.13
2019-01-26T17:59:18.893Z,24.53
2019-01-26T18:01:48.257Z,25.50
2019-01-26T18:04:18.095Z,27.67
2019-01-26T18:06:50.985Z,28.45
2019-01-26T18:09:23.570Z,29.80
2019-01-26T18:12:04.069Z,27.57
2019-01-26T18:14:34.020Z,25.43
2019-01-26T18:17:05.511Z,26.02
2019-01-26T18:19:37.083Z,23.80
2019-01-26T18:22:07.408Z,22.52
2019-01-26T18:24:37.858Z,24.70
2019-01-26T18:27:09.395Z,23.87
2019-01-26T18:29:38.659Z,21.27
2019-01-26T18:32:08.914Z,23.33
2019-01-26T18:34:38.078Z,21.05
2019-01-26T18:37:07.303Z,21.90
2019-01-26T18:39:40.316Z,23.97
2019-01-26T18:42:10.667Z,23.67
2019-01-26T18:44:40.172Z,24.00
2019-01-26T18:47:13.590Z,27.60
2019-01-26T18:49:45.836Z,25.03
2019-01-26T18:52:18.604Z,21.07
2019-01-26T18:54:48.978Z,28.47
2019-01-26T18:57:18.278Z,25.43
2019-01-26T18:59:47.631Z,21.07
2019-01-26T19:02:24.768Z,23.80
2019-01-26T19:06:00.304Z,26.70
2019-01-26T19:08:29.653Z,20.03
2019-01-26T19:10:59.060Z,24.57
2019-01-26T19:13:32.020Z,23.12
2019-01-26T19:16:04.528Z,21.45
2019-01-26T19:18:33.816Z,19.67
2019-01-26T19:21:03.653Z,21.63
2019-01-26T19:23:33.016Z,20.87
2019-01-26T19:26:04.083Z,18.47
2019-01-26T19:28:33.474Z,20.43
2019-01-26T19:31:05.501Z,18.92
2019-01-26T19:33:37.577Z,20.30
2019-01-26T19:36:09.540Z,22.80
2019-01-26T19:38:38.993Z,22.33
2019-01-26T19:41:08.202Z,19.77
2019-01-26T19:43:37.407Z,22.40
2019-01-26T19:46:06.587Z,20.30
2019-01-26T19:48:36.101Z,18.63
2019-01-26T19:51:09.911Z,18.90
2019-01-26T19:53:36.384Z,17.67
2019-01-26T19:56:05.831Z,16.17
2019-01-26T19:58:35.120Z,17.53
2019-01-26T20:01:04.453Z,19.48
2019-01-26T20:03:33.958Z,21.77
2019-01-26T20:06:03.324Z,19.27
2019-01-26T20:08:32.592Z,18.57
2019-01-26T20:11:02.510Z,17.60
2019-01-26T20:13:31.899Z,17.20
2019-01-26T20:16:01.231Z,16.85
2019-01-26T20:18:30.458Z,19.23
2019-01-26T20:20:59.747Z,16.47
2019-01-26T20:23:29.102Z,16.27
2019-01-26T20:25:58.592Z,13.73
2019-01-26T20:28:27.822Z,16.20
2019-01-26T20:30:57.151Z,19.73
2019-01-26T20:33:26.481Z,18.83
2019-01-26T20:35:55.795Z,19.67
2019-01-26T20:38:25.088Z,22.93
2019-01-26T20:40:54.859Z,22.27
2019-01-26T20:43:24.414Z,18.87
2019-01-26T20:45:53.675Z,18.47
2019-01-26T20:48:22.978Z,19.03
2019-01-26T20:50:52.256Z,20.07
2019-01-26T20:53:21.459Z,29.90
2019-01-26T20:55:50.760Z,23.07
2019-01-26T20:58:20.579Z,21.53
2019-01-26T21:00:49.941Z,20.12
2019-01-26T21:03:19.139Z,18.02
2019-01-26T21:05:53.226Z,19.60
2019-01-26T21:08:26.034Z,17.70
2019-01-26T21:10:55.969Z,12.97
2019-01-26T21:13:26.155Z,16.77
2019-01-26T21:15:55.437Z,13.40
2019-01-26T21:18:26.606Z,13.37
2019-01-26T21:20:55.871Z,11.20
2019-01-26T21:23:29.989Z,13.10
2019-01-26T21:26:01.148Z,11.40
2019-01-26T21:28:30.347Z,14.00
2019-01-26T21:30:59.641Z,12.93
2019-01-26T21:33:29.555Z,12.60
2019-01-26T21:36:09.457Z,12.70
2019-01-26T21:38:39.811Z,12.27
2019-01-26T21:41:09.203Z,11.93
2019-01-26T21:43:38.389Z,13.73
2019-01-26T21:46:07.716Z,14.67
2019-01-26T21:48:36.880Z,15.33
2019-01-26T21:51:07.997Z,16.10
2019-01-26T21:53:37.243Z,15.65
2019-01-26T21:56:08.491Z,16.30
2019-01-26T21:58:39.052Z,15.03
2019-01-26T22:01:09.313Z,17.53
2019-01-26T22:03:39.254Z,17.33
2019-01-26T22:06:08.965Z,15.30
2019-01-26T22:08:38.599Z,19.60
2019-01-26T22:11:08.404Z,17.97
2019-01-26T22:13:38.442Z,17.57
2019-01-26T22:16:08.179Z,17.40
2019-01-26T22:18:38.233Z,18.52
2019-01-26T22:21:08.375Z,16.52
2019-01-26T22:23:38.746Z,17.17
2019-01-26T22:26:08.776Z,16.63
2019-01-26T22:28:38.688Z,19.10
2019-01-26T22:31:08.979Z,18.25
2019-01-26T22:33:39.079Z,17.40
2019-01-26T22:36:09.087Z,21.70
2019-01-26T22:38:41.706Z,18.15
2019-01-26T22:41:10.996Z,18.50
2019-01-26T22:43:40.575Z,16.70
2019-01-26T22:46:09.753Z,24.12
2019-01-26T22:48:38.920Z,19.50
2019-01-26T22:51:08.271Z,18.00
2019-01-26T22:53:37.611Z,17.60
2019-01-26T22:56:07.497Z,17.70
2019-01-26T22:58:36.635Z,18.83
2019-01-26T23:01:29.046Z,18.93
2019-01-26T23:04:21.967Z,15.98
2019-01-26T23:07:27.475Z,20.50
2019-01-26T23:10:34.574Z,17.30
2019-01-26T23:13:29.059Z,18.90
2019-01-26T23:16:39.839Z,19.53
2019-01-26T23:19:16.343Z,27.03
2019-01-26T23:22:22.683Z,16.70
2019-01-26T23:25:11.288Z,18.60
2019-01-26T23:27:52.988Z,20.33
2019-01-26T23:30:59.352Z,21.52
2019-01-26T23:33:28.538Z,21.17
2019-01-26T23:35:58.444Z,14.83
2019-01-26T23:38:27.923Z,14.80
2019-01-26T23:40:57.494Z,14.50
2019-01-26T23:43:27.088Z,16.37
2019-01-26T23:45:56.254Z,21.10
2019-01-26T23:48:25.423Z,14.73
2019-01-26T23:50:54.592Z,19.27
2019-01-26T23:53:24.036Z,16.73
2019-01-26T23:55:53.187Z,15.40
2019-01-26T23:58:22.658Z,16.73
